createdAt,value
2023-02-22T00:03:32.705Z,51.70
2023-02-22T00:08:37.754Z,52.00
2023-02-22T00:13:45.623Z,52.10
2023-02-22T00:18:51.227Z,52.20
2023-02-22T00:23:55.240Z,52.30
2023-02-22T00:28:59.219Z,52.30
2023-02-22T00:34:03.183Z,52.30
2023-02-22T00:39:08.133Z,53.50
2023-02-22T00:44:12.575Z,53.50
2023-02-22T00:49:17.262Z,53.80
2023-02-22T00:54:21.244Z,53.40
2023-02-22T00:59:25.404Z,53.00
2023-02-22T01:04:30.143Z,53.00
2023-02-22T01:09:35.423Z,53.00
2023-02-22T01:14:40.586Z,53.10
2023-02-22T01:19:44.812Z,53.30
2023-02-22T01:24:49.991Z,53.50
2023-02-22T01:29:54.089Z,53.60
2023-02-22T01:34:58.138Z,53.60
2023-02-22T01:40:03.668Z,53.60
2023-02-22T01:45:35.762Z,53.70
2023-02-22T01:50:44.396Z,53.80
2023-02-22T01:55:51.639Z,53.50
2023-02-22T02:00:58.012Z,53.30
2023-02-22T02:06:06.320Z,53.50
2023-02-22T02:11:10.661Z,53.60
2023-02-22T02:16:15.302Z,53.80
2023-02-22T02:22:07.334Z,54.00
2023-02-22T02:27:39.734Z,53.40
2023-02-22T02:32:43.954Z,52.90
2023-02-22T02:38:05.071Z,52.10
2023-02-22T02:43:18.319Z,51.90
2023-02-22T02:48:27.835Z,51.80
2023-02-22T02:53:36.588Z,51.20
2023-02-22T02:58:50.472Z,51.20
2023-02-22T03:04:23.763Z,51.60
2023-02-22T03:09:55.234Z,51.20
2023-02-22T03:15:02.343Z,51.20
2023-02-22T03:20:19.560Z,51.20
2023-02-22T03:25:47.842Z,51.10
2023-02-22T03:31:01.336Z,51.00
2023-02-22T03:36:39.326Z,50.90
2023-02-22T03:41:54.510Z,50.80
2023-02-22T03:47:04.433Z,50.50
2023-02-22T03:52:08.908Z,50.90
2023-02-22T03:57:25.321Z,50.30
2023-02-22T04:02:35.693Z,50.70
2023-02-22T04:07:39.713Z,50.90
2023-02-22T04:12:44.482Z,51.00
2023-02-22T04:17:49.019Z,51.10
2023-02-22T04:22:54.076Z,51.20
2023-02-22T04:27:58.513Z,51.50
2023-02-22T04:33:16.576Z,51.90
2023-02-22T04:38:20.711Z,52.10
2023-02-22T04:43:26.067Z,52.70
2023-02-22T04:48:36.434Z,52.40
2023-02-22T04:53:40.415Z,52.60
2023-02-22T04:58:44.710Z,52.50
2023-02-22T05:03:48.747Z,52.50
2023-02-22T05:08:53.702Z,53.00
2023-02-22T05:13:57.733Z,53.00
2023-02-22T05:19:01.976Z,53.30
2023-02-22T05:24:06.638Z,53.10
2023-02-22T05:29:11.274Z,52.90
2023-02-22T05:34:16.222Z,53.20
2023-02-22T05:39:20.144Z,52.90
2023-02-22T05:44:24.377Z,53.60
2023-02-22T05:49:28.617Z,53.50
2023-02-22T05:54:32.646Z,53.20
2023-02-22T05:59:36.778Z,53.30
2023-02-22T06:04:40.663Z,53.60
2023-02-22T06:09:44.635Z,53.80
2023-02-22T06:14:48.626Z,53.40
2023-02-22T06:19:52.711Z,53.20
2023-02-22T06:24:56.837Z,52.70
2023-02-22T06:30:02.116Z,52.50
2023-02-22T06:35:06.401Z,52.70
2023-02-22T06:40:11.801Z,52.20
2023-02-22T06:45:17.864Z,51.50
2023-02-22T06:50:29.389Z,51.30
2023-02-22T06:55:35.210Z,50.60
2023-02-22T07:00:39.348Z,51.10
2023-02-22T07:05:43.940Z,51.10
2023-02-22T07:10:50.846Z,51.30
2023-02-22T07:15:54.867Z,51.40
2023-02-22T07:20:59.128Z,55.50
2023-02-22T07:26:05.818Z,53.40
2023-02-22T07:31:09.945Z,53.80
2023-02-22T07:36:18.071Z,53.70
2023-02-22T07:41:23.218Z,54.30
2023-02-22T07:46:27.249Z,54.30
2023-02-22T07:51:31.181Z,54.70
2023-02-22T07:56:35.408Z,55.10
2023-02-22T08:01:39.763Z,54.60
2023-02-22T08:06:46.660Z,54.40
2023-02-22T08:11:51.520Z,55.00
2023-02-22T08:16:55.466Z,54.80
2023-02-22T08:21:59.479Z,54.80
2023-02-22T08:27:03.714Z,54.90
2023-02-22T08:32:07.881Z,54.00
2023-02-22T08:37:12.394Z,54.10
2023-02-22T08:42:16.320Z,55.10
2023-02-22T08:47:20.510Z,54.30
2023-02-22T08:52:24.583Z,54.70
2023-02-22T08:57:28.521Z,54.50
2023-02-22T09:02:32.960Z,55.10
2023-02-22T09:07:37.173Z,54.30
2023-02-22T09:12:41.124Z,54.30
2023-02-22T09:17:45.515Z,54.10
2023-02-22T09:22:50.418Z,53.90
2023-02-22T09:27:55.496Z,53.80
2023-02-22T09:33:07.383Z,53.90
2023-02-22T09:38:12.521Z,53.50
2023-02-22T09:43:42.008Z,53.00
2023-02-22T09:49:00.370Z,52.10
2023-02-22T09:54:11.061Z,52.00
2023-02-22T09:59:22.752Z,51.80
2023-02-22T10:04:35.852Z,51.80
2023-02-22T10:09:42.990Z,52.10
2023-02-22T10:15:24.760Z,52.90
2023-02-22T10:20:52.739Z,52.80
2023-02-22T10:26:20.788Z,52.70
2023-02-22T10:31:33.858Z,52.90
2023-02-22T10:36:39.523Z,52.80
2023-02-22T10:41:50.408Z,52.50
2023-02-22T10:46:54.746Z,52.40
2023-02-22T10:52:02.002Z,52.90
2023-02-22T10:57:06.309Z,53.30
2023-02-22T11:02:25.693Z,53.70
2023-02-22T11:07:32.578Z,53.50
2023-02-22T11:12:39.765Z,53.00
2023-02-22T11:17:48.342Z,53.80
2023-02-22T11:22:58.505Z,53.60
2023-02-22T11:28:33.420Z,53.90
2023-02-22T11:33:39.100Z,55.50
2023-02-22T11:38:56.541Z,55.60
2023-02-22T11:44:33.194Z,56.10
2023-02-22T11:49:43.816Z,56.80
2023-02-22T11:55:36.450Z,57.20
2023-02-22T12:01:07.444Z,57.30
2023-02-22T12:06:29.807Z,56.90
2023-02-22T12:12:00.562Z,57.90
2023-02-22T12:17:33.035Z,57.20
2023-02-22T12:22:44.844Z,57.30
2023-02-22T12:28:23.745Z,57.10
2023-02-22T12:33:33.759Z,57.50
2023-02-22T12:38:44.852Z,60.10
2023-02-22T12:43:54.009Z,60.40
2023-02-22T12:49:33.621Z,60.30
2023-02-22T12:54:48.614Z,59.60
2023-02-22T13:00:01.460Z,60.00
2023-02-22T13:05:05.952Z,60.10
2023-02-22T13:10:37.853Z,59.80
2023-02-22T13:15:47.745Z,60.00
2023-02-22T13:21:01.671Z,59.70
2023-02-22T13:26:35.331Z,59.80
2023-02-22T13:31:58.351Z,60.00
2023-02-22T13:37:47.519Z,59.90
2023-02-22T13:43:13.661Z,59.60
2023-02-22T13:48:33.248Z,59.90
2023-02-22T13:53:48.761Z,60.00
2023-02-22T13:58:55.909Z,60.00
2023-02-22T14:04:24.829Z,60.10
2023-02-22T14:09:50.851Z,59.50
2023-02-22T14:15:18.724Z,60.00
2023-02-22T14:20:40.157Z,60.10
2023-02-22T14:25:44.752Z,59.70
2023-02-22T14:30:48.642Z,60.40
2023-02-22T14:35:53.949Z,60.20
2023-02-22T14:41:00.409Z,60.70
2023-02-22T14:46:06.855Z,60.30
2023-02-22T14:51:44.814Z,60.70
2023-02-22T14:57:15.135Z,60.90
2023-02-22T15:02:21.269Z,61.00
2023-02-22T15:07:27.915Z,61.70
2023-02-22T15:12:31.895Z,60.50
2023-02-22T15:17:36.005Z,60.90
2023-02-22T15:22:40.115Z,60.60
2023-02-22T15:27:47.966Z,60.70
2023-02-22T15:33:03.618Z,60.90
2023-02-22T15:38:12.071Z,60.60
2023-02-22T15:43:25.705Z,60.60
2023-02-22T15:48:32.094Z,60.80
2023-02-22T15:53:47.911Z,60.70
2023-02-22T15:58:59.682Z,61.30
2023-02-22T16:04:04.962Z,60.30
2023-02-22T16:09:15.189Z,60.90
2023-02-22T16:14:31.865Z,61.10
2023-02-22T16:19:42.609Z,60.80
2023-02-22T16:24:52.663Z,60.80
2023-02-22T16:30:24.694Z,60.60
2023-02-22T16:35:36.181Z,61.10
2023-02-22T16:40:45.040Z,59.90
2023-02-22T16:45:49.699Z,59.50
2023-02-22T16:50:57.599Z,59.10
2023-02-22T16:56:05.922Z,59.20
2023-02-22T17:01:11.088Z,59.40
2023-02-22T17:06:17.759Z,58.80
2023-02-22T17:11:26.440Z,58.40
2023-02-22T17:16:31.180Z,57.40
2023-02-22T17:21:36.824Z,56.90
2023-02-22T17:26:45.058Z,56.80
2023-02-22T17:31:50.448Z,55.80
2023-02-22T17:36:58.221Z,55.90
2023-02-22T17:42:11.213Z,56.40
2023-02-22T17:47:17.887Z,57.20
2023-02-22T17:52:24.821Z,56.70
2023-02-22T17:57:31.213Z,56.60
2023-02-22T18:02:38.083Z,56.60
2023-02-22T18:07:50.572Z,56.40
2023-02-22T18:12:58.011Z,56.60
2023-02-22T18:18:05.898Z,55.70
2023-02-22T18:23:17.350Z,55.80
2023-02-22T18:28:24.669Z,55.60
2023-02-22T18:33:30.052Z,56.10
2023-02-22T18:38:35.698Z,55.70
2023-02-22T18:43:43.066Z,55.50
2023-02-22T18:48:50.332Z,55.90
2023-02-22T18:54:00.935Z,56.10
2023-02-22T18:59:10.376Z,56.00
2023-02-22T19:04:16.700Z,55.80
2023-02-22T19:09:22.316Z,56.20
2023-02-22T19:14:28.338Z,56.40
2023-02-22T19:19:46.578Z,56.60
2023-02-22T19:24:55.733Z,56.70
2023-02-22T19:30:01.973Z,56.80
2023-02-22T19:35:09.567Z,57.10
2023-02-22T19:40:18.113Z,56.10
2023-02-22T19:45:25.828Z,56.00
2023-02-22T19:50:32.293Z,57.10
2023-02-22T19:55:37.876Z,57.40
2023-02-22T20:00:44.854Z,57.50
2023-02-22T20:05:51.113Z,57.40
2023-02-22T20:11:00.540Z,57.20
2023-02-22T20:16:07.612Z,57.70
2023-02-22T20:21:21.867Z,57.50
2023-02-22T20:26:30.592Z,57.20
2023-02-22T20:31:40.934Z,56.50
2023-02-22T20:36:51.455Z,56.20
2023-02-22T20:42:01.599Z,56.70
2023-02-22T20:47:14.971Z,56.90
2023-02-22T20:52:21.512Z,56.50
2023-02-22T20:57:31.249Z,56.70
2023-02-22T21:02:39.384Z,57.80
2023-02-22T21:07:45.114Z,58.00
2023-02-22T21:12:53.959Z,57.80
2023-02-22T21:18:17.398Z,57.80
2023-02-22T21:23:24.366Z,57.70
2023-02-22T21:28:42.531Z,57.60
2023-02-22T21:33:57.875Z,57.50
2023-02-22T21:39:10.153Z,57.80
2023-02-22T21:44:20.318Z,57.20
2023-02-22T21:49:28.029Z,56.60
2023-02-22T21:54:36.104Z,55.80
2023-02-22T21:59:42.089Z,55.80
2023-02-22T22:04:48.060Z,55.50
2023-02-22T22:09:57.127Z,54.70
2023-02-22T22:15:01.146Z,54.70
2023-02-22T22:20:05.847Z,54.40
2023-02-22T22:25:13.767Z,54.50
2023-02-22T22:30:18.612Z,62.50
2023-02-22T22:35:23.208Z,56.90
2023-02-22T22:40:29.595Z,56.60
2023-02-22T22:45:34.458Z,56.30
2023-02-22T22:50:39.284Z,55.90
2023-02-22T22:55:43.703Z,55.80
2023-02-22T23:00:49.018Z,56.20
2023-02-22T23:05:52.939Z,55.90
2023-02-22T23:10:57.582Z,55.80
2023-02-22T23:16:02.251Z,55.90
2023-02-22T23:21:06.663Z,55.70
2023-02-22T23:26:18.265Z,56.60
2023-02-22T23:31:22.866Z,56.10
2023-02-22T23:36:27.463Z,56.10
2023-02-22T23:41:31.796Z,56.00
2023-02-22T23:46:36.986Z,56.10
2023-02-22T23:51:45.084Z,56.70
2023-02-22T23:56:58.647Z,57.00
